Time;durP1;ratioP1;P1;durP2;ratioP2;P2;SDS_P1;SDS_P2;PMS_P1;PMS_P2;Temp;Humidity;BMP_temperature;BMP_pressure;BME280_temperature;BME280_humidity;BME280_pressure;Samples;Min_cycle;Max_cycle;Signal;HPM_P1;HPM_P2
2022/01/18 00:02:00;;;;;;;9.00;4.70;;;;;;;-1.73;73.92;100658.64;209059;1316;140972;-67
2022/01/18 00:07:03;;;;;;;15.00;5.90;;;;;;;-1.75;74.06;100679.02;208924;1320;141898;-67
2022/01/18 00:12:32;;;;;;;12.60;5.40;;;;;;;-1.72;74.23;100689.08;209451;1317;140317;-66
2022/01/18 00:17:52;;;;;;;13.60;4.80;;;;;;;-1.72;74.51;100695.46;209145;1316;139874;-68
2022/01/18 00:22:58;;;;;;;13.80;6.10;;;;;;;-1.75;74.52;100697.12;209505;1317;139842;-69
2022/01/18 00:28:03;;;;;;;13.80;4.90;;;;;;;-1.77;74.69;100694.53;208688;1316;139727;-67
2022/01/18 00:38:29;;;;;;;18.10;4.90;;;;;;;-1.86;74.88;100696.55;207049;1314;141434;-66
2022/01/18 00:43:32;;;;;;;10.80;4.10;;;;;;;-1.86;75.13;100707.39;207622;1316;140689;-64
2022/01/18 00:48:36;;;;;;;18.70;5.10;;;;;;;-1.85;75.37;100731.14;207625;1316;139927;-66
2022/01/18 00:53:46;;;;;;;15.00;5.40;;;;;;;-1.91;75.45;100744.90;206867;1315;141381;-64
2022/01/18 00:58:51;;;;;;;29.60;6.40;;;;;;;-1.97;75.66;100753.07;207215;1314;141333;-65
2022/01/18 01:04:05;;;;;;;14.10;5.80;;;;;;;-2.03;75.82;100771.15;207425;1319;139212;-66
2022/01/18 01:09:08;;;;;;;7.80;3.40;;;;;;;-2.05;75.89;100775.46;206850;1316;139330;-64
2022/01/18 01:14:19;;;;;;;17.90;3.90;;;;;;;-2.08;76.27;100779.45;207612;1315;139661;-67
2022/01/18 01:19:47;;;;;;;12.30;4.40;;;;;;;-2.10;76.55;100790.35;207113;1316;139413;-64
2022/01/18 01:36:07;;;;;;;30.00;8.40;;;;;;;-2.05;77.08;100800.19;207412;1316;139862;-65
2022/01/18 01:46:32;;;;;;;24.80;8.50;;;;;;;-2.09;77.14;100782.80;207872;1316;139077;-64
2022/01/18 01:51:35;;;;;;;32.80;11.30;;;;;;;-2.04;77.37;100777.34;207203;1316;139908;-68
2022/01/18 01:56:40;;;;;;;19.80;7.40;;;;;;;-2.01;77.51;100769.79;207102;1316;139451;-65
2022/01/18 02:01:46;;;;;;;16.30;5.70;;;;;;;-2.03;77.63;100777.27;208616;1316;139456;-65
2022/01/18 02:06:51;;;;;;;21.60;7.30;;;;;;;-2.08;77.67;100774.88;208422;1318;139970;-68
2022/01/18 02:11:56;;;;;;;18.70;5.80;;;;;;;-2.10;77.60;100772.64;209439;1316;139758;-67
2022/01/18 02:22:22;;;;;;;19.30;6.00;;;;;;;-2.00;78.01;100790.59;208785;1317;140326;-68
2022/01/18 02:27:26;;;;;;;12.10;4.60;;;;;;;-1.97;78.05;100791.93;208810;1316;139858;-66
2022/01/18 02:32:30;;;;;;;10.30;5.90;;;;;;;-1.97;78.10;100794.21;207827;1316;139301;-68
2022/01/18 02:37:32;;;;;;;22.10;7.80;;;;;;;-2.02;78.15;100801.19;209107;1316;139766;-66
2022/01/18 02:42:44;;;;;;;7.30;4.30;;;;;;;-1.99;78.08;100800.46;208144;1316;140078;-66
2022/01/18 02:47:47;;;;;;;9.50;5.20;;;;;;;-1.97;78.38;100798.56;206906;1316;139667;-66
2022/01/18 02:52:51;;;;;;;15.20;6.40;;;;;;;-1.98;78.40;100803.32;206962;1316;140483;-66
2022/01/18 02:58:02;;;;;;;8.00;4.10;;;;;;;-2.00;78.59;100801.61;206966;1316;139410;-67
2022/01/18 03:03:13;;;;;;;16.00;5.90;;;;;;;-2.04;78.72;100811.48;208157;1316;161685;-66
2022/01/18 03:08:17;;;;;;;6.90;4.10;;;;;;;-2.01;78.75;100809.67;208076;1317;141332;-67
2022/01/18 03:13:21;;;;;;;9.30;3.60;;;;;;;-2.00;78.97;100811.84;208280;1317;148956;-66
2022/01/18 03:18:25;;;;;;;7.10;2.70;;;;;;;-2.00;79.12;100818.67;206851;1317;140573;-65
2022/01/18 03:23:28;;;;;;;14.00;3.60;;;;;;;-2.04;79.16;100820.37;206951;1316;810968;-66
2022/01/18 03:28:31;;;;;;;12.40;4.50;;;;;;;-2.02;79.09;100825.64;207786;1316;142291;-66
2022/01/18 03:33:38;;;;;;;12.00;5.00;;;;;;;-2.02;79.23;100831.54;207319;1317;142107;-66
2022/01/18 03:43:20;;;;;;;9.60;4.80;;;;;;;-2.01;79.43;100837.20;207641;1355;685329;-68
2022/01/18 03:49:04;;;;;;;14.40;4.90;;;;;;;-2.03;79.45;100845.90;206238;1326;140441;-68
2022/01/18 03:53:52;;;;;;;14.20;3.20;;;;;;;-2.03;79.25;100849.58;206618;1325;294535;-69
2022/01/18 03:59:11;;;;;;;;;;;;;;;;;;;;;
2022/01/18 04:04:20;;;;;;;9.80;4.20;;;;;;;-2.09;79.62;100868.17;207386;1323;138806;-68
2022/01/18 04:09:25;;;;;;;9.90;3.50;;;;;;;-2.14;79.40;100877.82;208137;1329;139764;-68
2022/01/18 04:14:29;;;;;;;14.00;4.20;;;;;;;-2.12;79.62;100889.33;207938;1323;141512;-68
2022/01/18 04:30:41;;;;;;;19.60;6.00;;;;;;;-2.16;79.63;100893.83;209094;1316;139506;-69
2022/01/18 04:35:47;;;;;;;15.10;6.30;;;;;;;-2.19;79.69;100895.27;209232;1316;139829;-68
2022/01/18 04:40:51;;;;;;;14.00;5.60;;;;;;;-2.14;79.79;100900.23;208098;1316;141000;-67
2022/01/18 04:51:16;;;;;;;15.00;6.60;;;;;;;-2.12;80.03;100902.66;208259;1316;140542;-67
2022/01/18 04:57:51;;;;;;;27.50;6.70;;;;;;;-2.12;80.33;100912.80;207764;1316;139699;-67
2022/01/18 05:01:51;;;;;;;21.50;8.50;;;;;;;-2.14;80.34;100918.03;208369;1316;140017;-68
2022/01/18 05:06:59;;;;;;;23.90;9.30;;;;;;;-2.14;80.23;100923.75;207554;1316;141322;-67
2022/01/18 05:12:46;;;;;;;17.80;5.70;;;;;;;-2.11;80.39;100924.19;207663;1317;140060;-67
2022/01/18 05:18:56;;;;;;;17.90;8.40;;;;;;;-2.12;80.39;100939.93;207440;1316;139240;-67
2022/01/18 05:23:29;;;;;;;13.30;7.30;;;;;;;-2.15;80.48;100944.94;207971;1316;139072;-70
2022/01/18 05:28:36;;;;;;;22.50;5.90;;;;;;;-2.18;80.49;100950.23;207545;1316;139293;-67
2022/01/18 05:33:43;;;;;;;13.70;6.60;;;;;;;-2.14;80.71;100955.52;207930;1313;140818;-67
2022/01/18 05:38:46;;;;;;;15.20;6.00;;;;;;;-2.12;80.77;100958.81;207586;1313;139172;-66
2022/01/18 05:43:48;;;;;;;7.80;5.30;;;;;;;-2.15;80.73;100965.85;207945;1317;139430;-67
2022/01/18 05:48:52;;;;;;;21.50;7.40;;;;;;;-2.17;80.97;100967.37;208515;1314;140404;-68
2022/01/18 05:53:55;;;;;;;16.00;6.40;;;;;;;-2.14;80.79;100973.59;207627;1316;141563;-69
2022/01/18 05:59:23;;;;;;;15.20;6.20;;;;;;;-2.08;81.05;100976.38;207477;1317;139888;-68
2022/01/18 06:09:49;;;;;;;12.00;5.90;;;;;;;-2.13;80.95;100989.15;207392;1316;139142;-68
2022/01/18 06:14:52;;;;;;;16.40;6.10;;;;;;;-2.11;80.95;100997.57;209888;1315;140459;-70
2022/01/18 06:19:55;;;;;;;12.50;5.90;;;;;;;-2.08;81.10;101000.44;208305;1316;140257;-68
2022/01/18 06:24:58;;;;;;;14.70;5.90;;;;;;;-2.06;81.26;101009.14;209906;1316;139918;-69
2022/01/18 06:30:04;;;;;;;21.30;7.10;;;;;;;-2.06;81.15;101011.27;209104;1316;139274;-69
2022/01/18 06:35:11;;;;;;;22.60;7.50;;;;;;;-2.01;80.96;101017.98;210129;1316;140152;-69
2022/01/18 06:40:17;;;;;;;11.30;5.10;;;;;;;-1.97;81.04;101026.57;209766;1317;140618;-69
2022/01/18 06:45:20;;;;;;;17.20;6.10;;;;;;;-1.94;80.95;101030.70;209151;1316;140215;-69
2022/01/18 06:50:23;;;;;;;14.40;6.10;;;;;;;-1.94;81.17;101038.68;207935;1316;139201;-68
2022/01/18 06:55:32;;;;;;;19.10;7.10;;;;;;;-1.91;81.25;101056.24;208006;1316;139039;-66
2022/01/18 07:00:34;;;;;;;13.60;6.00;;;;;;;-1.85;81.21;101063.36;208168;1316;139400;-68
2022/01/18 07:05:40;;;;;;;16.80;6.40;;;;;;;-1.76;81.10;101072.60;208114;1316;140635;-67
2022/01/18 07:10:52;;;;;;;13.90;8.20;;;;;;;-1.67;81.41;101084.64;207640;1316;139104;-67
2022/01/18 07:15:55;;;;;;;17.30;6.90;;;;;;;-1.63;81.26;101095.48;208348;1316;142194;-68
2022/01/18 07:20:59;;;;;;;16.10;8.30;;;;;;;-1.57;81.34;101105.94;207636;1316;139632;-68
2022/01/18 07:26:03;;;;;;;12.90;6.40;;;;;;;-1.46;81.30;101110.79;207498;1316;140719;-68
2022/01/18 07:31:09;;;;;;;13.20;7.90;;;;;;;-1.35;81.19;101120.39;207655;1317;140528;-68
2022/01/18 07:36:20;;;;;;;12.10;6.80;;;;;;;-1.42;81.06;101122.81;207971;1316;139792;-68
2022/01/18 07:41:23;;;;;;;17.80;5.80;;;;;;;-1.42;81.16;101125.27;208777;1317;140752;-68
2022/01/18 07:46:26;;;;;;;8.50;6.50;;;;;;;-1.34;80.97;101131.63;207472;1316;139805;-68
2022/01/18 07:51:30;;;;;;;16.30;5.60;;;;;;;-1.23;81.27;101146.55;208523;1313;139216;-67
2022/01/18 07:56:33;;;;;;;13.90;5.20;;;;;;;-1.12;81.48;101152.62;208662;1313;139735;-68
2022/01/18 08:01:48;;;;;;;12.00;5.80;;;;;;;-1.00;81.51;101157.80;207859;1316;138951;-68
2022/01/18 08:06:52;;;;;;;24.70;6.40;;;;;;;-0.85;81.53;101173.09;208253;1313;139801;-68
2022/01/18 08:11:55;;;;;;;17.10;5.40;;;;;;;-0.63;81.42;101184.25;209605;1313;140188;-68
2022/01/18 08:17:04;;;;;;;10.90;4.30;;;;;;;-0.48;81.36;101185.05;209493;1313;139761;-68
2022/01/18 08:22:21;;;;;;;16.10;6.10;;;;;;;-0.32;81.28;101189.64;208756;1313;139614;-70
2022/01/18 08:27:33;;;;;;;17.00;5.40;;;;;;;-0.10;81.30;101192.35;209848;1313;140100;-71
2022/01/18 08:32:36;;;;;;;15.30;8.40;;;;;;;0.11;80.75;101202.90;209514;1317;141700;-71
2022/01/18 08:37:39;;;;;;;12.70;7.70;;;;;;;0.27;81.06;101216.06;209741;1313;139206;-72
2022/01/18 08:42:48;;;;;;;10.20;6.20;;;;;;;0.38;80.74;101225.57;209624;1313;140949;-71
2022/01/18 08:47:51;;;;;;;12.20;7.10;;;;;;;0.49;80.51;101238.13;209690;1313;139616;-68
2022/01/18 08:52:54;;;;;;;15.70;6.50;;;;;;;0.61;80.10;101242.77;208604;1313;139847;-71
2022/01/18 08:58:08;;;;;;;11.50;4.40;;;;;;;0.71;80.20;101248.59;207806;1313;140046;-70
2022/01/18 09:03:11;;;;;;;9.50;4.80;;;;;;;0.70;79.87;101259.31;209499;1313;139050;-71
2022/01/18 09:08:15;;;;;;;13.00;8.20;;;;;;;0.85;80.11;101261.69;208260;1312;140330;-70
2022/01/18 09:13:22;;;;;;;15.00;6.90;;;;;;;0.92;79.75;101273.10;208237;1313;140997;-71
2022/01/18 09:18:26;;;;;;;11.80;7.10;;;;;;;1.00;79.94;101277.30;208054;1313;139611;-70
2022/01/18 09:23:31;;;;;;;7.10;4.60;;;;;;;1.09;79.63;101286.55;208648;1314;141761;-70
2022/01/18 09:28:35;;;;;;;11.30;4.90;;;;;;;1.19;79.25;101293.73;208097;1313;141158;-66
2022/01/18 09:33:40;;;;;;;11.40;4.50;;;;;;;1.25;79.37;101296.52;208690;1313;139745;-69
2022/01/18 09:48:27;;;;;;;10.40;6.50;;;;;;;1.70;78.94;101296.96;207666;1354;683699;-71
2022/01/18 09:53:32;;;;;;;7.10;4.60;;;;;;;1.74;78.89;101306.15;204702;1337;138636;-70
2022/01/18 09:58:39;;;;;;;11.10;5.60;;;;;;;1.78;78.70;101316.80;204245;1332;872730;-69
2022/01/18 10:03:42;;;;;;;22.40;6.80;;;;;;;1.83;78.50;101321.43;205164;1333;138867;-71
2022/01/18 10:08:52;;;;;;;13.60;4.20;;;;;;;1.84;78.47;101323.87;205481;1328;142488;-70
2022/01/18 10:13:56;;;;;;;10.30;4.40;;;;;;;1.92;78.30;101321.07;204996;1328;140888;-71
2022/01/18 10:19:05;;;;;;;9.40;5.00;;;;;;;2.04;78.07;101321.40;206320;1328;140765;-71
2022/01/18 10:24:59;;;;;;;10.70;4.50;;;;;;;2.11;77.76;101327.77;206463;1331;140344;-72
2022/01/18 10:30:10;;;;;;;14.70;5.90;;;;;;;2.18;77.68;101334.09;205660;1329;139402;-71
2022/01/18 10:35:18;;;;;;;8.50;4.60;;;;;;;2.22;77.41;101341.27;206567;1326;139332;-71
2022/01/18 10:40:26;;;;;;;9.80;4.30;;;;;;;2.23;77.19;101347.50;206278;1328;139697;-72
2022/01/18 10:45:35;;;;;;;8.80;4.90;;;;;;;2.24;77.69;101357.17;207108;1326;138988;-72
2022/01/18 10:50:49;;;;;;;10.50;5.00;;;;;;;2.28;76.79;101365.39;207701;1329;140648;-72
2022/01/18 10:56:15;;;;;;;13.60;6.40;;;;;;;2.37;76.98;101376.05;207182;1329;140842;-71
2022/01/18 11:01:28;;;;;;;9.50;5.80;;;;;;;2.38;76.76;101383.66;206852;1328;139338;-72
2022/01/18 11:06:46;;;;;;;13.70;6.60;;;;;;;2.36;76.70;101384.73;206149;1327;140852;-72
2022/01/18 11:11:53;;;;;;;10.60;6.30;;;;;;;2.37;76.79;101391.30;206580;1328;141235;-72
2022/01/18 11:17:02;;;;;;;15.70;7.50;;;;;;;2.31;76.70;101390.92;206611;1329;139347;-70
2022/01/18 11:22:10;;;;;;;9.70;5.50;;;;;;;2.21;76.50;101392.61;206901;1322;151715;-70
2022/01/18 11:27:14;;;;;;;22.40;7.00;;;;;;;2.14;76.82;101386.59;207004;1319;141424;-71
2022/01/18 11:32:29;;;;;;;15.00;5.80;;;;;;;2.11;76.64;101380.67;207266;1321;140521;-70
2022/01/18 11:38:10;;;;;;;12.60;7.10;;;;;;;2.12;76.59;101382.88;207572;1322;138918;-69
2022/01/18 11:43:15;;;;;;;16.10;5.60;;;;;;;2.21;76.82;101370.43;207141;1320;140314;-70
2022/01/18 11:48:23;;;;;;;14.50;6.70;;;;;;;2.29;76.71;101370.48;207646;1321;139645;-70
2022/01/18 11:54:06;;;;;;;13.70;8.10;;;;;;;2.30;76.53;101376.30;207681;1320;139579;-70
2022/01/18 11:59:44;;;;;;;26.10;9.50;;;;;;;2.37;76.25;101379.20;206762;1322;141706;-68
2022/01/18 12:05:04;;;;;;;19.30;7.40;;;;;;;2.43;76.19;101380.21;206758;1321;142459;-68
2022/01/18 12:10:34;;;;;;;8.90;5.60;;;;;;;2.41;76.16;101384.65;207406;1320;138775;-67
2022/01/18 12:15:38;;;;;;;12.40;7.00;;;;;;;2.29;75.94;101385.30;206879;1321;140110;-69
2022/01/18 12:20:46;;;;;;;14.40;8.10;;;;;;;2.23;76.12;101381.88;206980;1321;139415;-68
2022/01/18 12:37:35;;;;;;;18.30;6.50;;;;;;;2.07;75.74;101396.88;208672;1319;139458;-71
2022/01/18 12:48:04;;;;;;;18.00;8.00;;;;;;;2.20;76.15;101388.93;208349;1322;139311;-72
2022/01/18 12:53:07;;;;;;;14.00;5.80;;;;;;;2.25;76.21;101385.91;208327;1319;139980;-71
2022/01/18 12:58:13;;;;;;;17.00;6.80;;;;;;;2.25;75.82;101390.45;209066;1319;140889;-72
2022/01/18 13:03:46;;;;;;;10.40;7.00;;;;;;;2.27;75.79;101393.77;207553;1320;140726;-71
2022/01/18 13:08:58;;;;;;;17.00;7.90;;;;;;;2.25;75.79;101400.61;208749;1319;139454;-69
2022/01/18 13:14:09;;;;;;;14.30;5.60;;;;;;;2.22;76.05;101406.11;207209;1316;139069;-69
2022/01/18 13:30:23;;;;;;;13.60;7.30;;;;;;;2.10;75.81;101408.53;207853;1317;138748;-70
2022/01/18 13:35:32;;;;;;;18.20;9.00;;;;;;;1.99;75.77;101403.73;208933;1317;139887;-69
2022/01/18 13:40:36;;;;;;;20.00;8.40;;;;;;;1.91;75.92;101405.83;207316;1318;141020;-69
2022/01/18 13:45:44;;;;;;;14.00;8.80;;;;;;;1.82;75.88;101415.41;207210;1316;141198;-68
2022/01/18 13:50:55;;;;;;;13.50;8.30;;;;;;;1.69;76.21;101422.56;207304;1317;140373;-70
2022/01/18 13:56:06;;;;;;;16.40;8.80;;;;;;;1.59;75.82;101445.66;207454;1317;140776;-68
2022/01/18 14:01:23;;;;;;;17.80;8.90;;;;;;;1.55;76.40;101462.83;207317;1317;140840;-67
2022/01/18 14:06:53;;;;;;;13.00;9.10;;;;;;;1.46;76.17;101469.60;207330;1318;139252;-66
2022/01/18 14:12:01;;;;;;;13.40;9.00;;;;;;;1.36;76.43;101475.73;207598;1316;140876;-67
2022/01/18 14:17:22;;;;;;;17.40;9.70;;;;;;;1.28;76.50;101482.18;207652;1318;139931;-69
2022/01/18 14:22:27;;;;;;;17.20;8.10;;;;;;;1.28;76.92;101483.39;207832;1317;140077;-69
2022/01/18 14:27:33;;;;;;;14.80;9.20;;;;;;;1.25;76.74;101491.15;206636;1317;142169;-67
2022/01/18 14:32:43;;;;;;;19.30;10.40;;;;;;;1.22;76.80;101491.98;207497;1318;140502;-65
2022/01/18 14:38:01;;;;;;;15.00;9.90;;;;;;;1.17;76.77;101488.98;208822;1318;140511;-66
2022/01/18 14:43:11;;;;;;;18.20;9.30;;;;;;;1.16;76.87;101490.66;208079;1318;209371;-66
2022/01/18 14:48:22;;;;;;;14.00;8.80;;;;;;;1.16;76.78;101497.27;208171;1318;141051;-66
2022/01/18 14:53:28;;;;;;;17.80;10.30;;;;;;;1.10;76.69;101501.96;208811;1318;140092;-68
2022/01/18 14:58:36;;;;;;;21.80;10.90;;;;;;;1.04;76.73;101504.41;208319;1316;142210;-66
2022/01/18 15:03:54;;;;;;;16.00;9.00;;;;;;;1.09;77.11;101511.38;209023;1317;140546;-68
2022/01/18 15:09:06;;;;;;;12.90;6.90;;;;;;;1.09;77.12;101503.86;209037;1318;159643;-68
2022/01/18 15:14:15;;;;;;;16.90;7.90;;;;;;;1.05;76.97;101498.23;208760;1316;139516;-68
2022/01/18 15:19:21;;;;;;;15.50;8.30;;;;;;;1.02;77.11;101506.70;209557;1316;140649;-68
2022/01/18 15:24:24;;;;;;;17.00;9.80;;;;;;;0.97;76.82;101506.55;208596;1317;142362;-69
2022/01/18 15:29:28;;;;;;;22.20;8.70;;;;;;;0.96;76.86;101509.23;207011;1318;140355;-66
2022/01/18 15:34:33;;;;;;;13.40;7.70;;;;;;;0.94;76.78;101507.17;208384;1318;140624;-66
2022/01/18 15:39:36;;;;;;;12.00;7.60;;;;;;;0.88;76.87;101524.54;207248;1313;139790;-66
2022/01/18 15:44:38;;;;;;;13.00;9.90;;;;;;;0.80;77.15;101520.47;207837;1318;140707;-66
2022/01/18 15:49:44;;;;;;;19.30;9.60;;;;;;;0.74;77.03;101530.20;207591;1315;139609;-65
2022/01/18 15:54:48;;;;;;;18.80;9.50;;;;;;;0.70;77.15;101540.17;207211;1318;231744;-65
2022/01/18 15:59:55;;;;;;;21.10;10.30;;;;;;;0.70;77.28;101541.96;207501;1316;142553;-66
2022/01/18 16:04:58;;;;;;;9.10;7.50;;;;;;;0.68;77.24;101549.57;207477;1317;139768;-66
2022/01/18 16:10:01;;;;;;;15.20;9.10;;;;;;;0.62;77.21;101536.44;207325;1318;139509;-66
2022/01/18 16:15:05;;;;;;;15.80;10.10;;;;;;;0.57;77.51;101548.40;207048;1317;140475;-65
2022/01/18 16:20:09;;;;;;;27.00;10.40;;;;;;;0.53;77.54;101551.02;208898;1317;139285;-65
2022/01/18 16:25:13;;;;;;;23.80;12.20;;;;;;;0.53;77.37;101544.70;207553;1319;140705;-66
2022/01/18 16:30:19;;;;;;;22.40;10.10;;;;;;;0.55;77.20;101537.23;206894;1318;140224;-66
2022/01/18 16:35:30;;;;;;;11.50;7.70;;;;;;;0.53;77.38;101537.92;208427;1318;139746;-66
2022/01/18 16:40:36;;;;;;;24.00;8.40;;;;;;;0.46;77.29;101537.77;207624;1319;138932;-63
2022/01/18 16:45:40;;;;;;;17.30;8.50;;;;;;;0.46;77.02;101544.29;207383;1318;139322;-65
2022/01/18 16:50:43;;;;;;;28.80;12.90;;;;;;;0.45;77.10;101541.58;208562;1318;140261;-66
2022/01/18 16:55:48;;;;;;;19.80;11.90;;;;;;;0.40;77.18;101542.34;209323;1317;140357;-66
2022/01/18 17:00:51;;;;;;;21.10;11.70;;;;;;;0.31;77.41;101557.20;209512;1317;139020;-68
2022/01/18 17:05:54;;;;;;;26.10;13.50;;;;;;;0.27;77.25;101563.80;209472;1318;139084;-68
2022/01/18 17:10:57;;;;;;;29.80;15.40;;;;;;;0.31;77.38;101576.77;208714;1316;141213;-71
2022/01/18 17:16:10;;;;;;;23.70;12.40;;;;;;;0.37;77.35;101573.70;209075;1318;153539;-70
2022/01/18 17:21:14;;;;;;;26.60;14.90;;;;;;;0.34;77.30;101563.58;207369;1318;141118;-64
2022/01/18 17:26:17;;;;;;;30.50;15.00;;;;;;;0.25;77.34;101561.02;208660;1318;163205;-67
2022/01/18 17:31:20;;;;;;;33.30;14.80;;;;;;;0.23;77.34;101568.89;208014;1318;142059;-65
2022/01/18 17:36:23;;;;;;;30.60;18.30;;;;;;;0.11;77.17;101570.52;207729;1318;140223;-66
2022/01/18 17:41:31;;;;;;;29.80;15.30;;;;;;;0.03;77.32;101570.52;207072;1318;141005;-67
2022/01/18 17:46:35;;;;;;;35.50;18.50;;;;;;;-0.01;77.34;101559.45;208065;1318;140297;-69
2022/01/18 17:51:38;;;;;;;27.90;15.00;;;;;;;-0.11;77.35;101550.09;207634;1318;140441;-66
2022/01/18 17:56:41;;;;;;;56.20;24.80;;;;;;;-0.24;77.30;101554.30;207323;1318;220970;-67
2022/01/18 18:01:45;;;;;;;87.60;34.20;;;;;;;-0.35;77.56;101553.77;206201;1318;1104165;-65
2022/01/18 18:06:50;;;;;;;39.30;17.60;;;;;;;-0.41;77.64;101552.46;207423;1318;141227;-65
2022/01/18 18:11:53;;;;;;;34.90;17.70;;;;;;;-0.39;77.75;101551.65;207471;1318;139658;-66
2022/01/18 18:17:00;;;;;;;25.50;15.50;;;;;;;-0.41;77.94;101561.39;208267;1318;140338;-65
2022/01/18 18:22:06;;;;;;;34.10;17.60;;;;;;;-0.45;77.99;101559.08;207413;1319;141370;-67
2022/01/18 18:27:09;;;;;;;39.90;18.50;;;;;;;-0.47;78.20;101546.69;208793;1313;141335;-66
2022/01/18 18:32:12;;;;;;;43.30;19.10;;;;;;;-0.42;78.05;101553.63;208060;1318;140559;-66
2022/01/18 18:37:15;;;;;;;44.70;20.60;;;;;;;-0.37;78.08;101547.98;207862;1316;140769;-66
2022/01/18 18:42:24;;;;;;;36.70;16.60;;;;;;;-0.32;78.52;101526.13;208862;1316;140207;-67
2022/01/18 18:47:29;;;;;;;36.00;16.00;;;;;;;-0.30;78.40;101518.25;208315;1317;142420;-65
2022/01/18 18:52:32;;;;;;;45.40;20.20;;;;;;;-0.26;78.39;101520.01;207789;1317;140680;-66
2022/01/18 18:57:56;;;;;;;;;;;;;;;;;;;;;
2022/01/18 19:03:03;;;;;;;43.50;22.00;;;;;;;-0.27;78.81;101528.11;209034;1316;140921;-67
2022/01/18 19:08:07;;;;;;;50.80;22.60;;;;;;;-0.28;78.87;101534.83;209110;1318;141281;-67
2022/01/18 19:13:10;;;;;;;39.40;21.00;;;;;;;-0.21;78.82;101538.00;208547;1319;140973;-67
2022/01/18 19:18:15;;;;;;;47.90;20.30;;;;;;;-0.18;78.73;101528.63;209008;1317;140079;-67
2022/01/18 19:23:23;;;;;;;21.00;11.90;;;;;;;-0.21;78.95;101526.30;208246;1317;141878;-67
2022/01/18 19:28:25;;;;;;;44.90;22.60;;;;;;;-0.22;79.11;101541.55;209062;1318;140570;-68
2022/01/18 19:33:29;;;;;;;49.30;22.40;;;;;;;-0.19;78.87;101540.26;207468;1318;140410;-67
2022/01/18 19:38:40;;;;;;;48.70;21.80;;;;;;;-0.16;79.24;101544.77;207987;1315;141047;-69
2022/01/18 19:43:46;;;;;;;55.30;24.50;;;;;;;-0.21;78.99;101550.01;207900;1318;141883;-68
2022/01/18 19:48:51;;;;;;;58.70;24.10;;;;;;;-0.24;79.21;101546.43;208106;1316;140231;-69
2022/01/18 19:53:54;;;;;;;58.10;26.50;;;;;;;-0.24;79.04;101543.84;208138;1316;141502;-67
2022/01/18 19:58:56;;;;;;;50.20;26.80;;;;;;;-0.27;79.20;101536.50;207024;1316;141012;-64
2022/01/18 20:03:59;;;;;;;44.60;22.40;;;;;;;-0.31;79.38;101549.45;207397;1318;140401;-65
2022/01/18 20:09:08;;;;;;;55.30;25.80;;;;;;;-0.39;79.36;101567.34;206724;1318;140963;-65
2022/01/18 20:14:14;;;;;;;53.50;26.60;;;;;;;-0.46;79.40;101584.44;207456;1317;140906;-66
2022/01/18 20:19:17;;;;;;;55.70;26.00;;;;;;;-0.48;79.44;101567.52;207282;1316;210823;-65
2022/01/18 20:24:19;;;;;;;64.90;27.60;;;;;;;-0.44;79.69;101555.30;207067;1317;141847;-64
2022/01/18 20:29:23;;;;;;;52.60;28.40;;;;;;;-0.42;79.48;101536.45;207290;1318;141319;-65
2022/01/18 20:34:26;;;;;;;47.60;23.40;;;;;;;-0.45;79.79;101520.99;207000;1318;154449;-66
2022/01/18 20:39:34;;;;;;;54.50;27.00;;;;;;;-0.48;79.86;101517.20;207526;1318;140195;-65
2022/01/18 20:44:37;;;;;;;58.90;24.30;;;;;;;-0.51;79.89;101508.15;207698;1319;139832;-65
2022/01/18 20:49:40;;;;;;;53.90;22.50;;;;;;;-0.49;79.78;101515.56;208254;1317;141137;-65
2022/01/18 20:54:46;;;;;;;41.20;20.60;;;;;;;-0.49;79.57;101526.02;209367;1319;140313;-66
2022/01/18 20:59:50;;;;;;;49.50;24.20;;;;;;;-0.53;79.77;101527.55;207771;1318;140951;-67
2022/01/18 21:05:01;;;;;;;49.70;22.60;;;;;;;-0.52;80.05;101521.54;207807;1318;140882;-66
2022/01/18 21:10:04;;;;;;;42.10;23.20;;;;;;;-0.53;79.82;101517.44;208661;1318;142102;-69
2022/01/18 21:15:08;;;;;;;46.20;22.00;;;;;;;-0.53;79.96;101517.23;209091;1318;140323;-69
2022/01/18 21:20:12;;;;;;;36.50;19.30;;;;;;;-0.54;80.01;101508.44;208901;1318;143134;-67
2022/01/18 21:25:16;;;;;;;46.10;19.00;;;;;;;-0.50;80.20;101494.15;207855;1318;142880;-67
2022/01/18 21:30:19;;;;;;;45.80;20.00;;;;;;;-0.45;80.19;101497.23;208604;1317;141018;-67
2022/01/18 21:35:24;;;;;;;41.00;19.10;;;;;;;-0.39;80.34;101483.84;208853;1318;141866;-68
2022/01/18 21:40:27;;;;;;;31.50;15.60;;;;;;;-0.33;80.03;101478.88;208914;1315;140094;-66
2022/01/18 21:45:34;;;;;;;25.10;14.20;;;;;;;-0.31;80.23;101478.20;208349;1318;140408;-66
2022/01/18 21:50:37;;;;;;;41.90;16.70;;;;;;;-0.32;80.16;101481.02;208328;1318;140313;-67
2022/01/18 21:55:41;;;;;;;28.00;14.10;;;;;;;-0.24;80.46;101478.23;207454;1319;141164;-65
2022/01/18 22:00:45;;;;;;;46.60;17.50;;;;;;;-0.18;80.65;101470.33;207369;1319;139952;-65
2022/01/18 22:05:49;;;;;;;31.30;13.60;;;;;;;-0.17;80.78;101466.02;207694;1318;144211;-65
2022/01/18 22:10:52;;;;;;;34.30;15.10;;;;;;;-0.19;80.73;101463.52;207948;1316;141048;-65
2022/01/18 22:15:56;;;;;;;42.40;18.50;;;;;;;-0.22;80.66;101463.61;207069;1316;142615;-67
2022/01/18 22:20:58;;;;;;;40.40;17.50;;;;;;;-0.21;80.80;101456.54;207045;1317;139897;-67
2022/01/18 22:26:02;;;;;;;37.70;15.30;;;;;;;-0.16;80.99;101446.35;208294;1317;141259;-65
2022/01/18 22:31:04;;;;;;;44.80;17.30;;;;;;;-0.16;81.15;101443.05;206999;1316;139778;-64
2022/01/18 22:36:07;;;;;;;42.00;15.00;;;;;;;-0.19;81.10;101437.49;207551;1316;139925;-65
2022/01/18 22:41:54;;;;;;;30.90;14.10;;;;;;;-0.17;81.17;101439.95;207355;1315;141172;-66
2022/01/18 22:46:49;;;;;;;62.80;22.10;;;;;;;-0.15;81.33;101442.23;207441;1317;139108;-65
2022/01/18 22:51:52;;;;;;;29.40;12.90;;;;;;;-0.15;81.66;101435.80;208044;1318;140858;-65
2022/01/18 22:56:55;;;;;;;42.10;18.20;;;;;;;-0.14;81.48;101435.05;207585;1317;141690;-66
2022/01/18 23:02:00;;;;;;;41.70;19.60;;;;;;;-0.09;81.47;101433.19;207097;1318;140671;-65
2022/01/18 23:07:03;;;;;;;32.40;18.30;;;;;;;-0.07;81.54;101429.39;207403;1316;141082;-65
2022/01/18 23:12:06;;;;;;;32.90;16.20;;;;;;;-0.07;81.64;101426.94;207182;1316;140114;-66
2022/01/18 23:17:12;;;;;;;34.30;17.40;;;;;;;-0.07;81.57;101419.77;208560;1319;139247;-65
2022/01/18 23:22:19;;;;;;;33.60;13.80;;;;;;;-0.03;81.51;101413.66;208781;1318;140074;-65
2022/01/18 23:27:22;;;;;;;46.60;19.30;;;;;;;0.01;81.41;101412.12;207876;1318;140309;-69
2022/01/18 23:32:24;;;;;;;42.40;18.70;;;;;;;-0.01;81.61;101412.48;209379;1319;140308;-69
2022/01/18 23:37:34;;;;;;;35.90;15.10;;;;;;;-0.02;81.73;101400.64;208823;1319;140761;-69
2022/01/18 23:42:40;;;;;;;34.60;14.40;;;;;;;0.03;81.64;101387.45;208909;1317;140679;-68
2022/01/18 23:47:45;;;;;;;48.30;17.90;;;;;;;0.09;81.27;101384.20;208837;1319;141423;-70
2022/01/18 23:52:48;;;;;;;41.30;21.10;;;;;;;0.09;81.50;101370.17;207351;1318;139512;-67
2022/01/18 23:57:51;;;;;;;44.10;20.70;;;;;;;0.13;81.51;101366.75;207922;1317;139652;-68
